Jesolo, Italy

6:25 PM CEST on September 19, 2019 (GMT +0200)
green | | Change Station

Elev 10 ft 45.62 °N, 12.57 °E | Updated 40 seconds ago

Partly Cloudy
Partly Cloudy
70 °F
Feels Like 70 °F
N
3.8
Wind Variable Wind from NE
Gusts 6.0 mph

Today
High -- | Low -- °F
--% Chance of Precip.
Yesterday
High -- | Low -- °F
Precip. -- in
Pressure 30.12 in
Visibility 6.2 miles
Clouds Mostly Cloudy 7000 ft
Dew Point 39 °F
Humidity 32%
Rainfall 0.00 in
Snow Depth Not available.
6:52 AM 7:13 PM
Waning Gibbous, 74% visible
METAR LIPA 191555Z 12004KT 9999 BKN070 20/07 Q1020 RMK BKN VIS MIN 9999 WIND THR05 /////KT WIND THR23 /////KT A3013 BLU
Pressure 30.12 in
Visibility 6.2 miles
Clouds Mostly Cloudy 7000 ft
Dew Point 39 °F
Humidity 32%
Rainfall 0.00 in
Snow Depth Not available.
6:52 AM 7:13 PM
Waning Gibbous, 74% visible
METAR LIPA 191555Z 12004KT 9999 BKN070 20/07 Q1020 RMK BKN VIS MIN 9999 WIND THR05 /////KT WIND THR23 /////KT A3013 BLU

Get Severe Weather Alerts

Thanks for signing up!

Be on the lookout for a verification email in your inbox.

You'll start receiving the daily forecast at 6 AM.

×

10-Day Weather Forecast

×

Almanac

Astronomy

Sep. 19, 2019 Rise Set
Actual Time
Civil Twilight
Nautical Twilight
Astronomical Twilight
Moon
Length of Visible Light
Length of Day
Tomorrow will be .
, % of the Moon is Illuminated

Today's Extremes

Country Highs Country Lows

Community

WunderPhotos

Category 6

Welcome to Category 6. This is the collective home for Weather Underground's featured writeups by Dr. Jeff Masters (right), Bob Henson (left), Chris Burt, and other regular contributors.

Nearby

Air Quality

  Air Quality AQ Index Pollutant
Not available.

Snow Depth

Station Depth Elevation

Earthquake Activity

City Distance Mag. Time & Date
Minimum magnitude displayed is 2.5.

Coastal Water Temperatures

Place Temperature

Stations

Nearby Weather Stations

Station Location Temp. Windchill Dew Point Humidity Wind Precip. Elev Updated Type